createdAt,value
2022-10-05T00:00:01.286Z,199.70
2022-10-05T00:01:01.312Z,223.20
2022-10-05T00:02:01.323Z,239.60
2022-10-05T00:03:01.299Z,242.50
2022-10-05T00:04:01.257Z,256.60
2022-10-05T00:05:01.261Z,255.10
2022-10-05T00:06:01.234Z,240.20
2022-10-05T00:07:01.220Z,226.30
2022-10-05T00:08:01.242Z,218.90
2022-10-05T00:09:01.193Z,220.20
2022-10-05T00:10:01.189Z,220.10
2022-10-05T00:11:01.173Z,220.70
2022-10-05T00:12:01.206Z,226.40
2022-10-05T00:13:01.190Z,237.70
2022-10-05T00:14:01.119Z,235.80
2022-10-05T00:15:01.144Z,212.40
2022-10-05T00:16:01.161Z,198.90
2022-10-05T00:17:01.127Z,210.80
2022-10-05T00:18:01.151Z,198.90
2022-10-05T00:19:01.093Z,195.80
2022-10-05T00:20:01.070Z,198.50
2022-10-05T00:21:01.081Z,198.50
2022-10-05T00:22:01.053Z,200.60
2022-10-05T00:23:01.070Z,198.10
2022-10-05T00:24:01.024Z,200.30
2022-10-05T00:25:01.017Z,191.50
2022-10-05T00:26:01.002Z,173.90
2022-10-05T00:27:01.005Z,172.90
2022-10-05T00:28:01.051Z,175.10
2022-10-05T00:29:00.983Z,171.20
2022-10-05T00:30:01.011Z,168.60
2022-10-05T00:31:00.959Z,171.00
2022-10-05T00:32:01.006Z,173.30
2022-10-05T00:33:00.962Z,177.30
2022-10-05T00:34:00.902Z,171.70
2022-10-05T00:35:00.906Z,176.00
2022-10-05T00:36:00.879Z,169.80
2022-10-05T00:37:00.915Z,166.80
2022-10-05T00:38:00.920Z,165.00
2022-10-05T00:39:00.870Z,166.40
2022-10-05T00:40:00.846Z,170.70
2022-10-05T00:41:00.850Z,172.30
2022-10-05T00:42:00.826Z,174.30
2022-10-05T00:43:00.861Z,168.20
2022-10-05T00:44:00.796Z,166.90
2022-10-05T00:45:00.786Z,166.40
2022-10-05T00:46:00.844Z,165.90
2022-10-05T00:47:00.767Z,168.00
2022-10-05T00:48:00.805Z,162.90
2022-10-05T00:49:00.756Z,162.10
2022-10-05T00:50:00.738Z,164.40
2022-10-05T00:51:00.728Z,168.00
2022-10-05T00:52:00.723Z,166.20
2022-10-05T00:53:00.758Z,176.40
2022-10-05T00:54:00.722Z,174.10
2022-10-05T00:55:00.688Z,172.70
2022-10-05T00:56:00.667Z,180.70
2022-10-05T00:57:00.699Z,191.20
2022-10-05T00:58:00.699Z,192.60
2022-10-05T00:59:00.654Z,209.10
2022-10-05T01:00:00.621Z,223.90
2022-10-05T01:01:00.693Z,227.10
2022-10-05T01:02:00.639Z,207.60
2022-10-05T01:03:00.626Z,193.90
2022-10-05T01:04:00.571Z,194.50
2022-10-05T01:05:00.572Z,199.50
2022-10-05T01:06:00.565Z,205.00
2022-10-05T01:07:00.556Z,215.30
2022-10-05T01:08:00.575Z,218.20
2022-10-05T01:09:00.529Z,218.20
2022-10-05T01:10:00.618Z,228.00
2022-10-05T01:11:00.522Z,233.40
2022-10-05T01:12:00.498Z,238.20
2022-10-05T01:13:00.529Z,230.80
2022-10-05T01:14:00.479Z,231.70
2022-10-05T01:15:00.467Z,224.90
2022-10-05T01:16:00.503Z,230.20
2022-10-05T01:17:00.514Z,232.20
2022-10-05T01:18:00.479Z,227.30
2022-10-05T01:19:00.414Z,236.90
2022-10-05T01:20:00.400Z,237.00
2022-10-05T01:21:00.394Z,200.40
2022-10-05T01:22:00.374Z,202.00
2022-10-05T01:23:00.413Z,196.80
2022-10-05T01:24:00.358Z,205.20
2022-10-05T01:25:00.355Z,230.60
2022-10-05T01:26:00.340Z,243.30
2022-10-05T01:27:00.328Z,248.00
2022-10-05T01:28:00.421Z,243.50
2022-10-05T01:29:00.304Z,255.40
2022-10-05T01:30:00.306Z,257.80
2022-10-05T01:31:00.278Z,254.90
2022-10-05T01:32:00.263Z,255.60
2022-10-05T01:33:00.293Z,256.20
2022-10-05T01:34:00.233Z,246.10
2022-10-05T01:35:00.240Z,231.50
2022-10-05T01:36:00.213Z,233.40
2022-10-05T01:37:00.222Z,228.60
2022-10-05T01:38:00.241Z,231.20
2022-10-05T01:39:00.193Z,238.40
2022-10-05T01:40:00.171Z,270.60
2022-10-05T01:41:00.181Z,276.70
2022-10-05T01:42:00.194Z,268.40
2022-10-05T01:43:00.174Z,248.10
2022-10-05T01:44:00.139Z,238.10
2022-10-05T01:45:00.118Z,244.50
2022-10-05T01:46:00.219Z,236.80
2022-10-05T01:47:00.104Z,261.40
2022-10-05T01:48:00.116Z,262.30
2022-10-05T01:49:00.077Z,268.80
2022-10-05T01:50:00.049Z,241.90
2022-10-05T01:51:00.041Z,231.40
2022-10-05T01:52:00.036Z,226.30
2022-10-05T01:53:00.095Z,225.60
2022-10-05T01:54:00.028Z,242.30
2022-10-05T01:55:00.017Z,246.90
2022-10-05T01:55:59.990Z,256.40
2022-10-05T01:56:59.977Z,267.00
2022-10-05T01:57:59.999Z,267.00
2022-10-05T01:58:59.954Z,270.70
2022-10-05T01:59:59.954Z,266.40
2022-10-05T02:00:59.991Z,276.00
2022-10-05T02:01:59.938Z,269.50
2022-10-05T02:02:59.949Z,271.30
2022-10-05T02:03:59.928Z,283.40
2022-10-05T02:05:02.640Z,283.70
2022-10-05T02:05:59.880Z,268.80
2022-10-05T02:06:59.881Z,262.70
2022-10-05T02:07:59.911Z,266.10
2022-10-05T02:08:59.855Z,260.20
2022-10-05T02:09:59.836Z,247.50
2022-10-05T02:10:59.836Z,248.20
2022-10-05T02:11:59.813Z,258.20
2022-10-05T02:12:59.856Z,254.00
2022-10-05T02:13:59.797Z,250.60
2022-10-05T02:14:59.757Z,264.00
2022-10-05T02:15:59.800Z,272.60
2022-10-05T02:16:59.756Z,283.80
2022-10-05T02:17:59.788Z,292.90
2022-10-05T02:18:59.744Z,305.10
2022-10-05T02:19:59.710Z,295.90
2022-10-05T02:20:59.723Z,289.10
2022-10-05T02:21:59.686Z,286.50
2022-10-05T02:22:59.733Z,278.00
2022-10-05T02:23:59.671Z,284.50
2022-10-05T02:24:59.682Z,276.30
2022-10-05T02:25:59.677Z,281.90
2022-10-05T02:26:59.645Z,278.70
2022-10-05T02:27:59.729Z,281.40
2022-10-05T02:28:59.636Z,287.30
2022-10-05T02:29:59.614Z,286.20
2022-10-05T02:30:59.600Z,304.70
2022-10-05T02:31:59.597Z,296.70
2022-10-05T02:32:59.610Z,291.30
2022-10-05T02:33:59.561Z,292.60
2022-10-05T02:34:59.536Z,296.00
2022-10-05T02:35:59.540Z,296.10
2022-10-05T02:36:59.542Z,288.60
2022-10-05T02:37:59.564Z,290.30
2022-10-05T02:38:59.517Z,296.20
2022-10-05T02:39:59.499Z,319.60
2022-10-05T02:40:59.481Z,334.00
2022-10-05T02:41:59.488Z,337.90
2022-10-05T02:42:59.512Z,338.60
2022-10-05T02:43:59.452Z,356.40
2022-10-05T02:44:59.436Z,361.10
2022-10-05T02:45:59.463Z,368.60
2022-10-05T02:46:59.414Z,372.40
2022-10-05T02:47:59.449Z,369.30
2022-10-05T02:48:59.403Z,375.80
2022-10-05T02:49:59.384Z,384.70
2022-10-05T02:50:59.364Z,399.30
2022-10-05T02:51:59.357Z,412.60
2022-10-05T02:52:59.393Z,408.20
2022-10-05T02:53:59.339Z,406.90
2022-10-05T02:54:59.342Z,393.10
2022-10-05T02:55:59.327Z,376.10
2022-10-05T02:56:59.302Z,364.60
2022-10-05T02:57:59.334Z,366.50
2022-10-05T02:58:59.279Z,356.40
2022-10-05T02:59:59.284Z,360.90
2022-10-05T03:00:59.289Z,372.90
2022-10-05T03:01:59.296Z,385.20
2022-10-05T03:02:59.268Z,381.60
2022-10-05T03:03:59.210Z,384.00
2022-10-05T03:04:59.199Z,376.70
2022-10-05T03:05:59.197Z,372.00
2022-10-05T03:06:59.201Z,368.50
2022-10-05T03:07:59.211Z,363.10
2022-10-05T03:08:59.184Z,355.10
2022-10-05T03:10:01.234Z,354.10
2022-10-05T03:10:59.190Z,348.20
2022-10-05T03:11:59.128Z,355.20
2022-10-05T03:12:59.169Z,362.90
2022-10-05T03:13:59.115Z,351.80
2022-10-05T03:14:59.101Z,347.30
2022-10-05T03:15:59.171Z,351.50
2022-10-05T03:16:59.082Z,354.30
2022-10-05T03:17:59.123Z,346.10
2022-10-05T03:18:59.064Z,350.60
2022-10-05T03:19:59.065Z,349.90
2022-10-05T03:20:59.033Z,354.90
2022-10-05T03:21:59.019Z,352.10
2022-10-05T03:22:59.051Z,355.40
2022-10-05T03:23:58.992Z,353.20
2022-10-05T03:24:59.004Z,360.40
2022-10-05T03:25:58.973Z,356.00
2022-10-05T03:26:58.983Z,350.80
2022-10-05T03:27:59.040Z,350.10
2022-10-05T03:28:58.945Z,357.70
2022-10-05T03:29:58.962Z,356.20
2022-10-05T03:30:58.937Z,355.90
2022-10-05T03:31:58.929Z,353.30
2022-10-05T03:32:58.891Z,354.20
2022-10-05T03:33:58.917Z,351.90
2022-10-05T03:34:58.863Z,349.20
2022-10-05T03:35:58.862Z,356.40
2022-10-05T03:36:58.854Z,494.70
2022-10-05T03:37:58.845Z,352.50
2022-10-05T03:38:58.866Z,341.90
2022-10-05T03:39:58.815Z,344.80
2022-10-05T03:40:58.796Z,361.60
2022-10-05T03:41:58.797Z,346.50
2022-10-05T03:42:58.778Z,340.70
2022-10-05T03:43:58.818Z,329.90
2022-10-05T03:44:58.751Z,347.40
2022-10-05T03:45:58.811Z,323.70
2022-10-05T03:46:58.740Z,352.20
2022-10-05T03:48:01.435Z,361.90
2022-10-05T03:48:58.747Z,372.40
2022-10-05T03:49:58.698Z,361.60
2022-10-05T03:50:58.692Z,355.30
2022-10-05T03:51:58.679Z,354.00
2022-10-05T03:52:58.672Z,366.50
2022-10-05T03:53:58.706Z,348.10
2022-10-05T03:54:58.642Z,350.20
2022-10-05T03:55:58.669Z,346.50
2022-10-05T03:56:58.620Z,328.40
2022-10-05T03:57:58.622Z,325.40
2022-10-05T03:58:58.648Z,314.30
2022-10-05T03:59:58.606Z,339.50
2022-10-05T04:00:58.571Z,332.40
2022-10-05T04:01:58.651Z,330.90
2022-10-05T04:02:58.563Z,351.40
2022-10-05T04:03:58.581Z,364.30
2022-10-05T04:04:58.515Z,353.70
2022-10-05T04:05:58.536Z,370.70
2022-10-05T04:06:58.512Z,383.20
2022-10-05T04:07:58.502Z,373.80
2022-10-05T04:08:58.522Z,361.90
2022-10-05T04:09:58.476Z,360.40
2022-10-05T04:10:58.456Z,354.10
2022-10-05T04:11:58.455Z,355.80
2022-10-05T04:12:58.436Z,372.20
2022-10-05T04:13:58.476Z,354.70
2022-10-05T04:14:58.397Z,338.70
2022-10-05T04:15:58.477Z,364.30
2022-10-05T04:16:58.436Z,355.30
2022-10-05T04:17:58.380Z,366.00
2022-10-05T04:18:58.418Z,340.00
2022-10-05T04:19:58.373Z,383.90
2022-10-05T04:20:58.362Z,367.00
2022-10-05T04:21:58.343Z,376.00
2022-10-05T04:22:58.336Z,359.10
2022-10-05T04:23:58.381Z,361.30
2022-10-05T04:24:58.286Z,366.50
2022-10-05T04:25:58.303Z,362.70
2022-10-05T04:26:58.275Z,352.30
2022-10-05T04:27:58.294Z,350.80
2022-10-05T04:28:58.308Z,354.20
2022-10-05T04:29:58.260Z,349.00
2022-10-05T04:30:58.263Z,352.30
2022-10-05T04:31:58.208Z,349.10
2022-10-05T04:32:58.218Z,359.50
2022-10-05T04:33:58.242Z,350.30
2022-10-05T04:34:58.187Z,349.10
2022-10-05T04:35:58.184Z,356.30
2022-10-05T04:36:58.174Z,355.10
2022-10-05T04:37:58.170Z,349.10
2022-10-05T04:38:58.185Z,355.00
2022-10-05T04:39:58.147Z,355.60
2022-10-05T04:40:58.154Z,355.60
2022-10-05T04:41:58.124Z,352.20
2022-10-05T04:42:58.155Z,365.70
2022-10-05T04:43:58.096Z,363.30
2022-10-05T04:44:59.392Z,372.20
2022-10-05T04:45:58.060Z,353.70
2022-10-05T04:46:58.127Z,365.70
2022-10-05T04:47:58.101Z,346.50
2022-10-05T04:48:58.036Z,364.20
2022-10-05T04:49:58.029Z,336.30
2022-10-05T04:50:58.020Z,280.50
2022-10-05T04:51:58.005Z,253.90
2022-10-05T04:52:58.024Z,267.80
2022-10-05T04:53:57.968Z,242.80
2022-10-05T04:54:57.974Z,222.60
2022-10-05T04:55:57.977Z,257.00
2022-10-05T04:56:57.933Z,242.00
2022-10-05T04:57:57.987Z,200.10
2022-10-05T04:58:57.918Z,208.90
2022-10-05T04:59:57.915Z,203.00
2022-10-05T05:00:57.966Z,199.30
2022-10-05T05:01:57.880Z,223.30
2022-10-05T05:02:57.910Z,182.70
2022-10-05T05:03:57.855Z,191.80
2022-10-05T05:04:57.831Z,194.00
2022-10-05T05:06:16.462Z,199.70
2022-10-05T05:06:58.817Z,203.30
2022-10-05T05:07:57.851Z,209.10
2022-10-05T05:08:57.801Z,207.40
2022-10-05T05:09:57.799Z,206.80
2022-10-05T05:10:57.788Z,215.40
2022-10-05T05:11:57.795Z,212.70
2022-10-05T05:12:57.827Z,214.40
2022-10-05T05:13:57.746Z,218.60
2022-10-05T05:14:57.736Z,210.10
2022-10-05T05:15:57.906Z,206.10
2022-10-05T05:16:57.727Z,202.10
2022-10-05T05:17:57.756Z,199.90
2022-10-05T05:18:57.698Z,194.50
2022-10-05T05:19:57.717Z,190.40
2022-10-05T05:20:57.666Z,201.20
2022-10-05T05:21:57.662Z,199.90
2022-10-05T05:22:57.697Z,201.40
2022-10-05T05:23:57.646Z,217.60
2022-10-05T05:24:57.619Z,227.50
2022-10-05T05:25:57.641Z,229.60
2022-10-05T05:26:57.643Z,234.20
2022-10-05T05:27:57.709Z,226.60
2022-10-05T05:28:57.567Z,232.00
2022-10-05T05:29:57.560Z,227.40
2022-10-05T05:30:57.593Z,229.30
2022-10-05T05:31:57.543Z,233.70
2022-10-05T05:32:57.672Z,235.30
2022-10-05T05:33:57.507Z,237.50
2022-10-05T05:34:57.496Z,245.10
2022-10-05T05:35:57.500Z,245.20
2022-10-05T05:36:57.473Z,249.10
2022-10-05T05:37:57.516Z,248.70
2022-10-05T05:38:57.462Z,246.00
2022-10-05T05:39:57.458Z,247.40
2022-10-05T05:40:57.446Z,254.70
2022-10-05T05:41:57.454Z,261.80
2022-10-05T05:42:57.468Z,263.70
2022-10-05T05:43:57.402Z,255.80
2022-10-05T05:44:57.391Z,250.00
2022-10-05T05:45:57.386Z,258.00
2022-10-05T05:47:05.410Z,254.50
2022-10-05T05:47:58.412Z,260.10
2022-10-05T05:48:57.359Z,249.40
2022-10-05T05:49:57.332Z,229.50
2022-10-05T05:50:57.354Z,210.40
2022-10-05T05:51:57.320Z,191.40
2022-10-05T05:52:57.389Z,181.70
2022-10-05T05:53:57.309Z,169.00
2022-10-05T05:54:57.274Z,165.00
2022-10-05T05:55:57.287Z,165.70
2022-10-05T05:56:57.257Z,165.90
2022-10-05T05:57:57.297Z,175.10
2022-10-05T05:58:57.237Z,171.40
2022-10-05T05:59:57.221Z,174.90
2022-10-05T06:00:57.226Z,178.00
2022-10-05T06:01:57.283Z,181.80
2022-10-05T06:02:57.345Z,177.50
2022-10-05T06:03:57.178Z,181.00
2022-10-05T06:04:57.178Z,181.10
2022-10-05T06:05:57.161Z,179.10
2022-10-05T06:06:57.155Z,173.60
2022-10-05T06:07:57.197Z,173.00
2022-10-05T06:08:57.126Z,178.70
2022-10-05T06:09:57.117Z,178.40
2022-10-05T06:10:57.091Z,179.40
2022-10-05T06:11:57.101Z,183.60
2022-10-05T06:13:01.487Z,188.40
2022-10-05T06:13:57.078Z,193.80
2022-10-05T06:14:57.058Z,197.90
2022-10-05T06:15:57.080Z,205.20
2022-10-05T06:16:57.126Z,199.10
2022-10-05T06:17:57.071Z,204.10
2022-10-05T06:18:57.021Z,191.60
2022-10-05T06:20:01.093Z,187.40
2022-10-05T06:20:57.993Z,183.50
2022-10-05T06:21:56.986Z,184.10
2022-10-05T06:22:57.031Z,200.20
2022-10-05T06:23:56.976Z,197.20
2022-10-05T06:24:56.937Z,210.80
2022-10-05T06:25:56.941Z,218.60
2022-10-05T06:26:56.927Z,233.90
2022-10-05T06:27:57.037Z,244.80
2022-10-05T06:28:56.900Z,259.10
2022-10-05T06:29:56.904Z,270.60
2022-10-05T06:30:56.890Z,301.10
2022-10-05T06:31:59.023Z,323.40
2022-10-05T06:32:56.889Z,334.30
2022-10-05T06:33:56.828Z,339.00
2022-10-05T06:34:56.843Z,335.60
2022-10-05T06:35:56.840Z,346.30
2022-10-05T06:36:56.820Z,362.60
2022-10-05T06:37:56.837Z,360.10
2022-10-05T06:38:56.784Z,341.90
2022-10-05T06:40:00.854Z,294.80
2022-10-05T06:40:56.770Z,232.40
2022-10-05T06:41:56.760Z,140.00
2022-10-05T06:42:56.789Z,138.30
2022-10-05T06:43:56.744Z,217.30
2022-10-05T06:44:56.729Z,85.10
2022-10-05T06:45:56.772Z,191.00
2022-10-05T06:46:56.690Z,62.00
2022-10-05T06:47:58.629Z,240.00
2022-10-05T06:48:56.688Z,50.60
2022-10-05T06:49:56.659Z,171.70
2022-10-05T06:50:56.663Z,93.00
2022-10-05T06:51:56.643Z,87.90
2022-10-05T06:52:56.676Z,213.90
2022-10-05T06:53:56.640Z,57.50
2022-10-05T06:54:56.611Z,61.90
2022-10-05T06:55:56.596Z,89.80
2022-10-05T06:56:56.595Z,116.70
2022-10-05T06:57:56.645Z,72.00
2022-10-05T06:58:56.562Z,126.10
2022-10-05T06:59:56.568Z,49.00
2022-10-05T07:00:56.586Z,106.20
2022-10-05T07:01:56.579Z,40.70
2022-10-05T07:02:56.547Z,101.90
2022-10-05T07:03:56.500Z,131.20
2022-10-05T07:04:56.476Z,68.70
2022-10-05T07:05:56.500Z,140.60
2022-10-05T07:06:56.476Z,142.50
2022-10-05T07:07:56.536Z,126.80
2022-10-05T07:08:56.448Z,90.60
2022-10-05T07:09:56.450Z,165.20
2022-10-05T07:10:56.435Z,155.40
2022-10-05T07:12:00.828Z,135.30
2022-10-05T07:12:57.466Z,112.50
2022-10-05T07:13:56.396Z,109.60
2022-10-05T07:14:56.379Z,58.40
2022-10-05T07:15:56.592Z,76.30
2022-10-05T07:16:56.362Z,35.00
2022-10-05T07:17:56.349Z,40.50
2022-10-05T07:18:56.380Z,124.10
2022-10-05T07:19:56.334Z,139.80
2022-10-05T07:20:56.315Z,123.70
2022-10-05T07:21:56.358Z,58.50
2022-10-05T07:22:56.291Z,148.10
2022-10-05T07:23:56.346Z,91.80
2022-10-05T07:24:56.259Z,104.20
2022-10-05T07:25:56.267Z,260.60
2022-10-05T07:26:56.237Z,101.00
2022-10-05T07:27:56.260Z,999.90
2022-10-05T07:28:56.282Z,999.90
2022-10-05T07:29:56.223Z,774.60
2022-10-05T07:30:56.259Z,999.90
2022-10-05T07:31:56.177Z,51.50
2022-10-05T07:32:56.180Z,999.90
2022-10-05T07:33:56.205Z,999.90
2022-10-05T07:34:56.159Z,999.90
2022-10-05T07:35:56.144Z,999.90
2022-10-05T07:36:56.408Z,999.90
2022-10-05T07:37:56.113Z,999.90
2022-10-05T07:38:56.151Z,999.90
2022-10-05T07:40:00.631Z,999.90
2022-10-05T07:40:57.084Z,999.90
2022-10-05T07:41:56.079Z,999.90
2022-10-05T07:42:56.087Z,999.90
2022-10-05T07:44:02.642Z,999.90
2022-10-05T07:44:57.059Z,999.90
2022-10-05T07:45:56.130Z,999.90
2022-10-05T07:46:56.034Z,999.90
2022-10-05T07:47:56.015Z,999.90
2022-10-05T07:48:56.031Z,999.90
2022-10-05T07:49:55.986Z,999.90
2022-10-05T07:50:55.971Z,999.90
2022-10-05T07:51:55.952Z,999.90
2022-10-05T07:52:55.963Z,999.90
2022-10-05T07:53:55.989Z,999.90
2022-10-05T07:54:55.926Z,999.90
2022-10-05T07:55:55.925Z,887.10
2022-10-05T07:56:55.914Z,740.60
2022-10-05T07:57:55.935Z,146.00
2022-10-05T07:58:55.961Z,43.00
2022-10-05T07:59:55.841Z,38.60
2022-10-05T08:00:55.860Z,99.10
2022-10-05T08:01:55.845Z,28.30
2022-10-05T08:02:55.949Z,24.20
2022-10-05T08:03:55.800Z,34.20
2022-10-05T08:04:55.823Z,21.70
2022-10-05T08:05:55.793Z,21.10
2022-10-05T08:06:55.802Z,11.50
2022-10-05T08:07:55.852Z,10.90
2022-10-05T08:08:55.771Z,12.20
2022-10-05T08:09:55.761Z,17.50
2022-10-05T08:10:55.751Z,11.80
2022-10-05T08:11:55.743Z,13.80
2022-10-05T08:12:55.736Z,13.70
2022-10-05T08:13:55.753Z,15.20
2022-10-05T08:14:55.711Z,18.30
2022-10-05T08:15:55.711Z,13.00
2022-10-05T08:16:55.696Z,11.20
2022-10-05T08:17:55.657Z,9.30
2022-10-05T08:18:55.716Z,10.40
2022-10-05T08:19:55.636Z,9.90
2022-10-05T08:20:55.651Z,10.30
2022-10-05T08:21:55.619Z,11.60
2022-10-05T08:22:55.694Z,13.60
2022-10-05T08:23:55.653Z,14.90
2022-10-05T08:24:55.588Z,18.40
2022-10-05T08:25:55.592Z,15.70
2022-10-05T08:26:55.565Z,16.10
2022-10-05T08:27:55.632Z,12.60
2022-10-05T08:28:55.635Z,10.80
2022-10-05T08:29:55.524Z,10.00
2022-10-05T08:30:55.563Z,9.70
2022-10-05T08:31:55.518Z,9.30
2022-10-05T08:32:55.537Z,8.90
2022-10-05T08:33:55.540Z,7.80
2022-10-05T08:34:55.476Z,7.50
2022-10-05T08:35:55.460Z,8.00
2022-10-05T08:36:55.533Z,8.90
2022-10-05T08:37:55.442Z,6.30
2022-10-05T08:38:55.493Z,6.80
2022-10-05T08:39:55.418Z,6.50
2022-10-05T08:40:55.417Z,7.70
2022-10-05T08:41:55.393Z,8.50
2022-10-05T08:42:55.382Z,8.10
2022-10-05T08:43:55.407Z,8.10
2022-10-05T08:44:55.362Z,7.60
2022-10-05T08:45:55.388Z,8.10
2022-10-05T08:46:55.363Z,7.90
2022-10-05T08:47:55.309Z,7.60
2022-10-05T08:48:55.356Z,7.80
2022-10-05T08:49:55.304Z,7.50
2022-10-05T08:50:55.323Z,7.30
2022-10-05T08:51:55.282Z,7.00
2022-10-05T08:52:55.284Z,5.90
2022-10-05T08:53:55.331Z,6.40
2022-10-05T08:54:55.276Z,6.20
2022-10-05T08:55:55.240Z,6.00
2022-10-05T08:56:55.232Z,6.20
2022-10-05T08:57:55.198Z,6.50
2022-10-05T08:58:55.239Z,6.20
2022-10-05T08:59:55.181Z,6.70
2022-10-05T09:00:55.175Z,6.90
2022-10-05T09:01:55.270Z,7.10
2022-10-05T09:02:55.193Z,6.10
2022-10-05T09:03:55.203Z,6.70
2022-10-05T09:04:55.152Z,6.80
2022-10-05T09:05:55.130Z,8.40
2022-10-05T09:06:55.149Z,8.60
2022-10-05T09:07:55.112Z,8.50
2022-10-05T09:08:55.116Z,9.30
2022-10-05T09:09:59.489Z,9.10
2022-10-05T09:10:56.081Z,8.80
2022-10-05T09:11:55.054Z,8.90
2022-10-05T09:12:55.051Z,8.40
2022-10-05T09:13:55.073Z,8.20
2022-10-05T09:15:20.490Z,7.70
2022-10-05T09:15:56.052Z,6.90
2022-10-05T09:16:55.004Z,6.50
2022-10-05T09:17:55.014Z,6.90
2022-10-05T09:18:55.053Z,8.70
2022-10-05T09:19:54.978Z,7.90
2022-10-05T09:20:54.967Z,7.60
2022-10-05T09:21:54.937Z,6.80
2022-10-05T09:22:54.956Z,6.90
2022-10-05T09:23:54.977Z,7.10
2022-10-05T09:24:54.892Z,7.60
2022-10-05T09:25:54.899Z,7.10
2022-10-05T09:26:54.885Z,8.00
2022-10-05T09:27:54.908Z,7.70
2022-10-05T09:28:54.903Z,8.10
2022-10-05T09:29:54.866Z,7.80
2022-10-05T09:30:54.889Z,7.10
2022-10-05T09:31:54.857Z,6.70
2022-10-05T09:32:54.827Z,6.80
2022-10-05T09:33:54.852Z,7.60
2022-10-05T09:34:54.823Z,8.30
2022-10-05T09:35:54.791Z,7.50
2022-10-05T09:36:54.788Z,7.40
2022-10-05T09:37:54.760Z,7.50
2022-10-05T09:38:54.831Z,6.70
2022-10-05T09:39:59.068Z,7.60
2022-10-05T09:40:55.734Z,7.70
2022-10-05T09:41:54.713Z,7.20
2022-10-05T09:42:54.714Z,7.60
2022-10-05T09:43:54.741Z,8.00
2022-10-05T09:44:54.685Z,8.20
2022-10-05T09:45:54.712Z,9.20
2022-10-05T09:46:54.671Z,10.10
2022-10-05T09:47:54.693Z,8.30
2022-10-05T09:48:54.679Z,7.70
2022-10-05T09:49:54.618Z,7.70
2022-10-05T09:50:54.622Z,7.70
2022-10-05T09:51:54.618Z,7.40
2022-10-05T09:52:54.641Z,7.50
2022-10-05T09:53:54.577Z,7.60
2022-10-05T09:54:54.595Z,7.90
2022-10-05T09:55:54.554Z,6.90
2022-10-05T09:56:54.565Z,6.70
2022-10-05T09:57:54.563Z,7.10
2022-10-05T09:58:54.536Z,6.90
2022-10-05T09:59:54.568Z,6.70
2022-10-05T10:01:03.718Z,6.80
2022-10-05T10:01:55.582Z,6.40
2022-10-05T10:02:54.609Z,7.10
2022-10-05T10:03:54.464Z,6.60
2022-10-05T10:04:54.465Z,6.20
2022-10-05T10:05:54.445Z,6.90
2022-10-05T10:06:54.445Z,6.40
2022-10-05T10:07:54.462Z,7.30
2022-10-05T10:08:54.424Z,7.00
2022-10-05T10:09:54.396Z,7.70
2022-10-05T10:10:54.410Z,6.90
2022-10-05T10:11:54.394Z,6.20
2022-10-05T10:12:54.432Z,6.70
2022-10-05T10:13:54.364Z,6.10
2022-10-05T10:14:54.348Z,5.60
2022-10-05T10:15:54.369Z,6.10
2022-10-05T10:16:54.347Z,6.20
2022-10-05T10:17:54.356Z,6.30
2022-10-05T10:18:54.302Z,6.00
2022-10-05T10:19:54.300Z,6.20
2022-10-05T10:20:54.290Z,6.40
2022-10-05T10:21:54.285Z,6.40
2022-10-05T10:22:54.261Z,6.50
2022-10-05T10:23:54.284Z,6.30
2022-10-05T10:24:54.236Z,6.50
2022-10-05T10:25:54.220Z,6.40
2022-10-05T10:26:54.219Z,6.00
2022-10-05T10:27:54.303Z,6.40
2022-10-05T10:28:54.257Z,5.90
2022-10-05T10:29:54.180Z,6.00
2022-10-05T10:30:54.205Z,6.00
2022-10-05T10:31:54.159Z,5.50
2022-10-05T10:32:54.137Z,5.30
2022-10-05T10:33:54.187Z,5.40
2022-10-05T10:34:54.167Z,5.50
2022-10-05T10:35:54.121Z,5.50
2022-10-05T10:36:54.123Z,5.70
2022-10-05T10:37:54.131Z,5.50
2022-10-05T10:38:54.092Z,5.90
2022-10-05T10:39:54.085Z,5.90
2022-10-05T10:40:54.069Z,5.60
2022-10-05T10:41:54.064Z,6.00
2022-10-05T10:42:54.058Z,5.50
2022-10-05T10:43:54.084Z,5.40
2022-10-05T10:44:54.025Z,5.40
2022-10-05T10:45:54.003Z,5.40
2022-10-05T10:46:54.126Z,5.50
2022-10-05T10:47:53.992Z,5.60
2022-10-05T10:48:54.023Z,5.60
2022-10-05T10:49:53.961Z,5.60
2022-10-05T10:50:53.968Z,5.50
2022-10-05T10:51:53.960Z,5.60
2022-10-05T10:52:53.944Z,5.70
2022-10-05T10:53:53.977Z,5.30
2022-10-05T10:54:53.906Z,5.70
2022-10-05T10:55:53.895Z,5.90
2022-10-05T10:56:53.887Z,6.40
2022-10-05T10:57:53.898Z,6.00
2022-10-05T10:58:53.922Z,6.00
2022-10-05T10:59:53.838Z,6.10
2022-10-05T11:00:53.865Z,6.10
2022-10-05T11:01:53.885Z,5.80
2022-10-05T11:02:53.922Z,6.40
2022-10-05T11:03:53.877Z,6.20
2022-10-05T11:04:53.803Z,5.70
2022-10-05T11:05:53.794Z,5.70
2022-10-05T11:06:53.764Z,5.40
2022-10-05T11:07:53.769Z,5.20
2022-10-05T11:08:53.824Z,5.40
2022-10-05T11:09:53.742Z,5.00
2022-10-05T11:10:53.740Z,4.90
2022-10-05T11:11:53.727Z,4.90
2022-10-05T11:12:53.702Z,5.10
2022-10-05T11:13:53.769Z,5.20
2022-10-05T11:14:53.702Z,5.00
2022-10-05T11:15:53.751Z,5.20
2022-10-05T11:16:53.922Z,5.30
2022-10-05T11:17:53.656Z,5.40
2022-10-05T11:18:53.713Z,5.60
2022-10-05T11:20:03.555Z,5.50
2022-10-05T11:20:54.626Z,5.60
2022-10-05T11:21:53.648Z,5.60
2022-10-05T11:22:53.603Z,5.80
2022-10-05T11:23:53.636Z,6.00
2022-10-05T11:24:53.584Z,5.70
2022-10-05T11:25:53.568Z,5.60
2022-10-05T11:26:53.557Z,5.90
2022-10-05T11:27:53.622Z,6.00
2022-10-05T11:28:53.592Z,6.20
2022-10-05T11:29:53.541Z,6.20
2022-10-05T11:30:53.589Z,6.20
2022-10-05T11:31:53.879Z,6.00
2022-10-05T11:32:53.511Z,6.10
2022-10-05T11:33:53.541Z,6.20
2022-10-05T11:34:53.493Z,6.20
2022-10-05T11:35:53.461Z,5.70
2022-10-05T11:36:53.478Z,5.50
2022-10-05T11:37:53.441Z,5.90
2022-10-05T11:38:53.476Z,5.40
2022-10-05T11:39:53.443Z,5.40
2022-10-05T11:40:53.432Z,5.10
2022-10-05T11:41:53.415Z,5.40
2022-10-05T11:42:53.388Z,5.60
2022-10-05T11:43:53.421Z,5.50
2022-10-05T11:44:53.375Z,5.70
2022-10-05T11:45:53.361Z,5.40
2022-10-05T11:46:53.411Z,5.60
2022-10-05T11:47:53.343Z,5.70
2022-10-05T11:48:53.390Z,5.50
2022-10-05T11:49:53.328Z,5.40
2022-10-05T11:50:53.303Z,5.40
2022-10-05T11:51:53.275Z,5.10
2022-10-05T11:52:53.304Z,5.40
2022-10-05T11:53:53.302Z,5.30
2022-10-05T11:55:09.810Z,5.10
2022-10-05T11:55:54.237Z,5.10
2022-10-05T11:56:54.732Z,5.20
2022-10-05T11:57:53.219Z,5.10
2022-10-05T11:58:53.267Z,5.10
2022-10-05T11:59:53.214Z,5.60
2022-10-05T12:00:53.184Z,5.50
2022-10-05T12:01:53.199Z,6.00
2022-10-05T12:02:53.252Z,6.20
2022-10-05T12:03:53.297Z,5.90
2022-10-05T12:04:53.149Z,5.80
2022-10-05T12:05:53.156Z,5.50
2022-10-05T12:06:53.113Z,6.40
2022-10-05T12:07:53.155Z,6.40
2022-10-05T12:08:53.146Z,6.50
2022-10-05T12:09:53.107Z,6.50
2022-10-05T12:10:53.075Z,6.50
2022-10-05T12:11:57.017Z,5.90
2022-10-05T12:12:54.070Z,6.20
2022-10-05T12:13:53.085Z,5.90
2022-10-05T12:14:53.031Z,6.20
2022-10-05T12:15:53.076Z,6.10
2022-10-05T12:16:53.026Z,6.30
2022-10-05T12:17:52.999Z,5.80
2022-10-05T12:18:53.024Z,6.10
2022-10-05T12:19:52.985Z,5.50
2022-10-05T12:20:52.982Z,5.60
2022-10-05T12:21:52.959Z,5.60
2022-10-05T12:22:52.932Z,5.70
2022-10-05T12:23:52.974Z,6.00
2022-10-05T12:24:52.922Z,5.60
2022-10-05T12:25:52.924Z,5.90
2022-10-05T12:26:52.906Z,5.90
2022-10-05T12:27:52.907Z,6.10
2022-10-05T12:28:52.925Z,5.80
2022-10-05T12:29:52.865Z,5.90
2022-10-05T12:30:52.861Z,6.10
2022-10-05T12:31:52.868Z,6.10
2022-10-05T12:32:53.519Z,5.80
2022-10-05T12:33:52.867Z,6.30
2022-10-05T12:34:52.821Z,5.90
2022-10-05T12:35:52.823Z,5.50
2022-10-05T12:37:06.714Z,5.40
2022-10-05T12:37:53.892Z,5.30
2022-10-05T12:38:52.823Z,5.10
2022-10-05T12:39:52.757Z,5.10
2022-10-05T12:40:52.742Z,5.00
2022-10-05T12:41:52.734Z,4.90
2022-10-05T12:42:52.716Z,4.90
2022-10-05T12:43:52.733Z,4.60
2022-10-05T12:44:52.745Z,4.90
2022-10-05T12:45:52.760Z,4.70